Time;durP1;ratioP1;P1;durP2;ratioP2;P2;SDS_P1;SDS_P2;PMS_P1;PMS_P2;Temp;Humidity;BMP_temperature;BMP_pressure;BME280_temperature;BME280_humidity;BME280_pressure;Samples;Min_cycle;Max_cycle;Signal;HPM_P1;HPM_P2
2023/10/26 00:01:42;;;;;;;31.53;12.40;;;;;;;;;;5021058;28;20700;-71
2023/10/26 00:04:07;;;;;;;29.77;12.17;;;;;;;;;;5025126;28;20395;-71
2023/10/26 00:06:32;;;;;;;41.23;17.03;;;;;;;;;;5023939;28;20315;-71
2023/10/26 00:08:57;;;;;;;30.17;11.73;;;;;;;;;;5024337;28;20320;-71
2023/10/26 00:11:22;;;;;;;31.43;12.53;;;;;;;;;;5021673;28;20264;-71
2023/10/26 00:13:47;;;;;;;30.23;12.10;;;;;;;;;;5026993;28;20376;-71
2023/10/26 00:16:12;;;;;;;36.73;12.50;;;;;;;;;;5026157;28;20279;-72
2023/10/26 00:18:38;;;;;;;26.03;12.03;;;;;;;;;;5021584;28;20266;-71
2023/10/26 00:21:03;;;;;;;33.85;13.77;;;;;;;;;;5031415;28;20387;-71
2023/10/26 00:23:28;;;;;;;37.90;14.02;;;;;;;;;;5020911;28;20030;-71
2023/10/26 00:25:53;;;;;;;38.00;13.95;;;;;;;;;;5026907;28;20470;-72
2023/10/26 00:28:19;;;;;;;35.28;15.45;;;;;;;;;;5023739;28;20017;-71
2023/10/26 00:30:44;;;;;;;38.30;15.25;;;;;;;;;;5027484;28;20029;-71
2023/10/26 00:33:09;;;;;;;35.73;14.50;;;;;;;;;;5022678;28;20075;-72
2023/10/26 00:35:34;;;;;;;35.17;14.60;;;;;;;;;;5023101;28;20300;-72
2023/10/26 00:38:00;;;;;;;38.33;15.13;;;;;;;;;;5023088;28;20268;-71
2023/10/26 00:40:25;;;;;;;39.03;15.90;;;;;;;;;;5020613;28;20033;-71
2023/10/26 00:42:50;;;;;;;34.83;15.13;;;;;;;;;;5022889;28;20091;-71
2023/10/26 00:45:15;;;;;;;38.60;15.57;;;;;;;;;;5020999;28;20436;-72
2023/10/26 00:47:41;;;;;;;35.28;15.20;;;;;;;;;;5020466;28;20257;-71
2023/10/26 00:50:06;;;;;;;34.70;13.68;;;;;;;;;;5023209;28;20017;-71
2023/10/26 00:52:34;;;;;;;30.17;13.57;;;;;;;;;;5019949;28;20030;-71
2023/10/26 00:55:00;;;;;;;35.88;15.38;;;;;;;;;;5020487;28;20417;-71
2023/10/26 00:57:26;;;;;;;38.07;15.93;;;;;;;;;;5026028;28;20026;-71
2023/10/26 00:59:51;;;;;;;35.35;14.30;;;;;;;;;;5022694;28;20275;-71
2023/10/26 01:02:17;;;;;;;31.88;13.30;;;;;;;;;;5021041;28;20017;-71
2023/10/26 01:04:43;;;;;;;38.65;15.93;;;;;;;;;;5021265;28;20018;-71
2023/10/26 01:07:08;;;;;;;42.63;17.30;;;;;;;;;;5022300;28;20070;-72
2023/10/26 01:09:33;;;;;;;37.15;15.70;;;;;;;;;;5022755;28;20052;-71
2023/10/26 01:11:58;;;;;;;33.72;15.15;;;;;;;;;;5022746;28;20025;-71
2023/10/26 01:14:24;;;;;;;42.08;15.00;;;;;;;;;;5019765;28;20508;-71
2023/10/26 01:16:49;;;;;;;36.45;14.88;;;;;;;;;;5020536;28;20018;-71
2023/10/26 01:19:14;;;;;;;37.47;15.50;;;;;;;;;;5025041;28;20028;-71
2023/10/26 01:21:48;;;;;;;37.93;14.37;;;;;;;;;;5029508;28;20028;-70
2023/10/26 01:24:14;;;;;;;36.47;14.77;;;;;;;;;;5027877;28;20264;-71
2023/10/26 01:26:40;;;;;;;36.38;15.73;;;;;;;;;;5032993;28;20025;-71
2023/10/26 01:29:05;;;;;;;35.90;16.40;;;;;;;;;;5034945;28;20029;-72
2023/10/26 01:31:31;;;;;;;42.90;16.33;;;;;;;;;;5036519;28;20403;-71
2023/10/26 01:33:56;;;;;;;35.43;15.80;;;;;;;;;;5034836;28;20055;-71
2023/10/26 01:36:21;;;;;;;38.83;15.80;;;;;;;;;;5027582;28;20292;-71
2023/10/26 01:38:46;;;;;;;35.85;16.77;;;;;;;;;;5034621;28;20326;-71
2023/10/26 01:41:11;;;;;;;41.00;17.07;;;;;;;;;;5028418;28;20029;-70
2023/10/26 01:43:37;;;;;;;44.27;17.70;;;;;;;;;;5026379;28;20279;-71
2023/10/26 01:46:02;;;;;;;46.38;19.83;;;;;;;;;;5032166;28;20351;-70
2023/10/26 01:48:27;;;;;;;43.55;17.98;;;;;;;;;;5025157;28;20474;-71
2023/10/26 01:50:53;;;;;;;42.10;16.35;;;;;;;;;;5027598;28;20406;-71
2023/10/26 01:53:18;;;;;;;43.13;19.00;;;;;;;;;;5018337;28;20087;-70
2023/10/26 01:55:43;;;;;;;37.80;15.65;;;;;;;;;;5019845;28;20097;-71
2023/10/26 01:58:08;;;;;;;39.83;16.45;;;;;;;;;;5020441;28;20373;-70
2023/10/26 02:00:34;;;;;;;33.90;14.63;;;;;;;;;;5026105;28;20500;-71
2023/10/26 02:02:59;;;;;;;33.50;15.30;;;;;;;;;;5035389;28;20030;-72
2023/10/26 02:05:24;;;;;;;41.30;16.47;;;;;;;;;;5026199;28;20030;-71
2023/10/26 02:07:50;;;;;;;42.90;18.65;;;;;;;;;;5028798;28;20268;-71
2023/10/26 02:10:15;;;;;;;39.60;17.55;;;;;;;;;;5020454;28;20018;-72
2023/10/26 02:12:41;;;;;;;39.35;15.43;;;;;;;;;;5018225;28;20118;-71
2023/10/26 02:15:06;;;;;;;40.20;16.65;;;;;;;;;;5027174;28;20019;-72
2023/10/26 02:17:31;;;;;;;38.17;15.57;;;;;;;;;;5027084;28;20022;-71
2023/10/26 02:19:57;;;;;;;40.85;16.15;;;;;;;;;;5027540;28;20021;-71
2023/10/26 02:22:22;;;;;;;42.90;15.15;;;;;;;;;;5018107;28;20092;-71
2023/10/26 02:24:47;;;;;;;33.22;14.30;;;;;;;;;;5019731;28;20060;-71
2023/10/26 02:27:12;;;;;;;47.10;16.43;;;;;;;;;;5019388;28;20017;-71
2023/10/26 02:29:38;;;;;;;43.00;18.95;;;;;;;;;;5021019;28;20279;-71
2023/10/26 02:32:04;;;;;;;38.03;16.83;;;;;;;;;;5027999;28;20362;-71
2023/10/26 02:34:29;;;;;;;43.80;18.50;;;;;;;;;;5037606;28;20039;-71
2023/10/26 02:36:54;;;;;;;37.37;17.10;;;;;;;;;;5048905;28;20013;-71
2023/10/26 02:39:19;;;;;;;41.88;17.33;;;;;;;;;;5039921;28;20314;-71
2023/10/26 02:41:44;;;;;;;47.58;19.65;;;;;;;;;;5047688;28;20009;-72
2023/10/26 02:44:10;;;;;;;39.60;18.08;;;;;;;;;;5026866;28;20018;-72
2023/10/26 02:46:35;;;;;;;40.60;16.70;;;;;;;;;;5024786;28;20038;-71
2023/10/26 02:49:00;;;;;;;37.97;17.00;;;;;;;;;;5020547;28;20471;-71
2023/10/26 02:51:25;;;;;;;35.17;15.90;;;;;;;;;;5017237;28;20316;-71
2023/10/26 02:53:50;;;;;;;34.47;15.50;;;;;;;;;;5026104;28;20275;-71
2023/10/26 02:56:15;;;;;;;29.43;13.87;;;;;;;;;;5028180;28;20016;-71
2023/10/26 02:58:41;;;;;;;28.67;13.80;;;;;;;;;;5024833;28;20268;-71
2023/10/26 03:01:06;;;;;;;30.90;14.13;;;;;;;;;;5019776;28;20335;-70
2023/10/26 03:03:31;;;;;;;32.95;15.32;;;;;;;;;;5024669;28;20803;-71
2023/10/26 03:05:59;;;;;;;29.90;13.93;;;;;;;;;;5029384;28;20405;-72
2023/10/26 03:08:24;;;;;;;35.08;15.70;;;;;;;;;;5020958;28;20280;-72
2023/10/26 03:10:49;;;;;;;32.40;15.52;;;;;;;;;;5028776;28;20391;-70
2023/10/26 03:13:15;;;;;;;31.93;14.50;;;;;;;;;;5025739;28;20113;-71
2023/10/26 03:15:40;;;;;;;27.95;13.65;;;;;;;;;;5028631;28;20610;-70
2023/10/26 03:18:06;;;;;;;28.17;14.13;;;;;;;;;;5024037;28;20436;-70
2023/10/26 03:20:32;;;;;;;28.10;13.02;;;;;;;;;;5016221;28;20855;-72
2023/10/26 03:22:57;;;;;;;26.73;12.80;;;;;;;;;;5025583;28;20037;-71
2023/10/26 03:25:22;;;;;;;22.37;12.13;;;;;;;;;;5034704;28;20029;-70
2023/10/26 03:27:47;;;;;;;22.13;11.07;;;;;;;;;;5032575;28;20756;-71
2023/10/26 03:30:13;;;;;;;22.60;12.20;;;;;;;;;;5030732;28;20033;-70
2023/10/26 03:32:38;;;;;;;18.77;9.45;;;;;;;;;;5032562;28;20280;-70
2023/10/26 03:35:03;;;;;;;24.23;11.55;;;;;;;;;;5028991;28;20388;-70
2023/10/26 03:37:29;;;;;;;16.88;10.40;;;;;;;;;;5019889;28;20360;-71
2023/10/26 03:39:54;;;;;;;22.63;9.32;;;;;;;;;;5026380;28;20049;-70
2023/10/26 03:42:20;;;;;;;22.67;8.88;;;;;;;;;;5031213;28;20087;-70
2023/10/26 03:44:45;;;;;;;18.60;9.77;;;;;;;;;;5027995;28;20021;-72
2023/10/26 03:47:10;;;;;;;19.43;9.90;;;;;;;;;;5021918;28;20029;-70
2023/10/26 03:49:36;;;;;;;19.20;10.10;;;;;;;;;;5023261;28;20280;-71
2023/10/26 03:52:01;;;;;;;21.30;11.07;;;;;;;;;;5024300;28;20279;-71
2023/10/26 03:54:27;;;;;;;20.60;10.43;;;;;;;;;;5043125;28;20029;-70
2023/10/26 03:56:52;;;;;;;24.55;10.70;;;;;;;;;;5045589;28;20466;-70
2023/10/26 03:59:17;;;;;;;19.33;9.98;;;;;;;;;;5044746;28;20444;-70
2023/10/26 04:01:42;;;;;;;18.80;9.33;;;;;;;;;;5039548;28;20430;-70
2023/10/26 04:04:08;;;;;;;21.20;9.73;;;;;;;;;;5032240;28;20306;-71
2023/10/26 04:06:33;;;;;;;20.95;10.15;;;;;;;;;;5022828;28;20018;-71
2023/10/26 04:08:58;;;;;;;22.67;10.35;;;;;;;;;;5021997;28;20025;-70
2023/10/26 04:11:26;;;;;;;21.30;8.97;;;;;;;;;;5030207;28;20032;-70
2023/10/26 04:13:53;;;;;;;21.83;9.32;;;;;;;;;;5031534;28;20272;-70
2023/10/26 04:16:18;;;;;;;19.92;9.85;;;;;;;;;;5020073;28;20020;-70
2023/10/26 04:18:44;;;;;;;18.30;9.27;;;;;;;;;;5019493;28;20463;-70
2023/10/26 04:21:09;;;;;;;20.05;9.73;;;;;;;;;;5027290;28;20611;-71
2023/10/26 04:23:34;;;;;;;17.63;9.40;;;;;;;;;;5032139;28;20021;-71
2023/10/26 04:25:59;;;;;;;19.13;10.05;;;;;;;;;;5027038;28;20331;-70
2023/10/26 04:28:24;;;;;;;24.87;10.43;;;;;;;;;;5018742;28;20040;-71
2023/10/26 04:30:50;;;;;;;19.17;10.00;;;;;;;;;;5024452;28;20272;-70
2023/10/26 04:33:15;;;;;;;22.50;10.55;;;;;;;;;;5025839;28;20316;-70
2023/10/26 04:35:41;;;;;;;21.63;10.52;;;;;;;;;;5031777;28;20519;-70
2023/10/26 04:38:08;;;;;;;21.55;10.05;;;;;;;;;;5021037;28;20028;-70
2023/10/26 04:40:33;;;;;;;20.63;10.60;;;;;;;;;;5018754;28;20034;-71
2023/10/26 04:42:58;;;;;;;19.17;9.07;;;;;;;;;;5021898;28;20085;-71
2023/10/26 04:45:24;;;;;;;23.43;9.73;;;;;;;;;;5027943;28;20064;-70
2023/10/26 04:47:49;;;;;;;23.00;10.63;;;;;;;;;;5026738;28;20287;-73
2023/10/26 04:50:14;;;;;;;28.00;10.53;;;;;;;;;;5019796;28;20260;-70
2023/10/26 04:52:39;;;;;;;20.15;10.10;;;;;;;;;;5018131;28;20446;-71
2023/10/26 04:55:05;;;;;;;17.60;9.90;;;;;;;;;;5022275;28;20086;-70
2023/10/26 04:57:30;;;;;;;25.10;11.13;;;;;;;;;;5019254;28;20265;-70
2023/10/26 04:59:55;;;;;;;20.67;10.25;;;;;;;;;;5030979;28;20556;-70
2023/10/26 05:02:20;;;;;;;22.00;10.87;;;;;;;;;;5023119;28;20055;-70
2023/10/26 05:04:46;;;;;;;19.70;10.80;;;;;;;;;;5018642;28;20288;-70
2023/10/26 05:07:11;;;;;;;18.75;9.73;;;;;;;;;;5019564;28;20251;-70
2023/10/26 05:09:36;;;;;;;21.17;9.20;;;;;;;;;;5020959;28;20029;-70
2023/10/26 05:12:01;;;;;;;22.10;10.77;;;;;;;;;;5029081;28;20822;-71
2023/10/26 05:14:26;;;;;;;25.95;11.48;;;;;;;;;;5022313;28;20026;-73
2023/10/26 05:16:52;;;;;;;24.53;11.03;;;;;;;;;;5018966;28;20076;-72
2023/10/26 05:19:17;;;;;;;26.13;11.30;;;;;;;;;;5018479;28;20329;-72
2023/10/26 05:21:42;;;;;;;22.35;11.02;;;;;;;;;;5021939;28;22234;-74
2023/10/26 05:24:07;;;;;;;23.53;11.67;;;;;;;;;;5027411;28;20021;-74
2023/10/26 05:26:32;;;;;;;35.08;13.32;;;;;;;;;;5025542;28;20302;-72
2023/10/26 05:28:58;;;;;;;23.42;11.82;;;;;;;;;;5028376;28;20013;-73
2023/10/26 05:31:23;;;;;;;23.40;12.10;;;;;;;;;;5025502;28;20026;-72
2023/10/26 05:33:48;;;;;;;24.73;12.23;;;;;;;;;;5025491;28;20768;-72
2023/10/26 05:36:13;;;;;;;22.77;11.27;;;;;;;;;;5026433;28;20268;-73
2023/10/26 05:38:39;;;;;;;27.90;12.90;;;;;;;;;;5022329;28;20271;-73
2023/10/26 05:41:04;;;;;;;22.05;10.85;;;;;;;;;;5025355;28;20371;-73
2023/10/26 05:43:29;;;;;;;26.30;13.18;;;;;;;;;;5027256;28;20029;-72
2023/10/26 05:46:01;;;;;;;26.20;11.73;;;;;;;;;;5027686;28;20101;-73
2023/10/26 05:48:26;;;;;;;26.60;11.85;;;;;;;;;;5014371;28;20340;-72
2023/10/26 05:50:51;;;;;;;28.13;13.17;;;;;;;;;;5018573;28;20124;-73
2023/10/26 05:53:16;;;;;;;27.25;11.82;;;;;;;;;;5025105;28;20283;-73
2023/10/26 05:55:41;;;;;;;25.80;11.67;;;;;;;;;;5027058;28;20018;-73
2023/10/26 05:58:09;;;;;;;23.53;11.30;;;;;;;;;;5027929;28;20354;-73
2023/10/26 06:00:34;;;;;;;29.02;13.23;;;;;;;;;;5027846;28;20359;-73
2023/10/26 06:02:59;;;;;;;25.33;12.37;;;;;;;;;;5027886;28;20152;-74
2023/10/26 06:05:24;;;;;;;26.40;11.75;;;;;;;;;;5017475;28;20272;-73
2023/10/26 06:07:50;;;;;;;37.35;12.50;;;;;;;;;;5016897;28;20026;-74
2023/10/26 06:10:15;;;;;;;26.40;12.55;;;;;;;;;;5025479;28;20025;-72
2023/10/26 06:12:40;;;;;;;33.75;13.93;;;;;;;;;;5023067;28;20033;-73
2023/10/26 06:15:06;;;;;;;28.00;13.43;;;;;;;;;;5014613;28;20025;-73
2023/10/26 06:17:31;;;;;;;28.02;13.77;;;;;;;;;;5027210;28;20359;-73
2023/10/26 06:19:56;;;;;;;24.40;12.55;;;;;;;;;;5021141;28;20033;-73
2023/10/26 06:22:21;;;;;;;23.57;11.23;;;;;;;;;;5022510;28;20078;-73
2023/10/26 06:24:46;;;;;;;24.75;11.73;;;;;;;;;;5026655;28;20264;-73
2023/10/26 06:27:12;;;;;;;27.73;11.37;;;;;;;;;;5025700;28;20021;-73
2023/10/26 06:29:37;;;;;;;25.40;11.00;;;;;;;;;;5025849;28;20268;-73
2023/10/26 06:32:02;;;;;;;23.48;10.77;;;;;;;;;;5021887;28;20397;-73
2023/10/26 06:34:29;;;;;;;24.23;11.32;;;;;;;;;;5019729;28;20018;-73
2023/10/26 06:36:55;;;;;;;23.45;10.57;;;;;;;;;;5028627;28;20029;-73
2023/10/26 06:39:20;;;;;;;22.67;11.35;;;;;;;;;;5026858;28;20095;-73
2023/10/26 06:41:45;;;;;;;28.05;11.32;;;;;;;;;;5027148;28;20029;-74
2023/10/26 06:44:10;;;;;;;30.07;13.60;;;;;;;;;;5027179;28;20034;-73
2023/10/26 06:46:35;;;;;;;30.02;12.38;;;;;;;;;;5024300;28;20280;-73
2023/10/26 06:49:00;;;;;;;32.30;12.35;;;;;;;;;;5023450;28;20249;-72
2023/10/26 06:51:26;;;;;;;36.37;14.40;;;;;;;;;;5025843;28;20025;-74
2023/10/26 06:53:51;;;;;;;28.40;12.93;;;;;;;;;;5021959;28;20407;-72
2023/10/26 06:56:16;;;;;;;28.33;13.07;;;;;;;;;;5018814;28;20725;-73
2023/10/26 06:58:43;;;;;;;26.10;12.77;;;;;;;;;;5020698;28;20253;-74
2023/10/26 07:01:08;;;;;;;27.65;12.73;;;;;;;;;;5047845;28;20273;-73
2023/10/26 07:03:33;;;;;;;23.90;11.60;;;;;;;;;;5025822;28;20022;-73
2023/10/26 07:06:02;;;;;;;31.02;12.68;;;;;;;;;;5030695;28;20605;-73
2023/10/26 07:08:27;;;;;;;36.80;15.68;;;;;;;;;;5017475;28;20028;-73
2023/10/26 07:10:54;;;;;;;41.30;18.00;;;;;;;;;;5022725;28;20108;-73
2023/10/26 07:13:19;;;;;;;31.65;13.43;;;;;;;;;;5028766;28;20292;-73
2023/10/26 07:15:44;;;;;;;28.70;13.13;;;;;;;;;;5022646;28;20096;-73
2023/10/26 07:18:10;;;;;;;34.63;13.68;;;;;;;;;;5024746;28;20291;-73
2023/10/26 07:20:36;;;;;;;29.48;13.07;;;;;;;;;;5028082;28;20052;-73
2023/10/26 07:23:02;;;;;;;37.30;12.20;;;;;;;;;;5031036;28;20021;-73
2023/10/26 07:25:27;;;;;;;28.60;13.83;;;;;;;;;;5020507;28;20022;-73
2023/10/26 07:27:52;;;;;;;27.30;13.20;;;;;;;;;;5032164;28;20299;-73
2023/10/26 07:30:17;;;;;;;27.42;13.00;;;;;;;;;;5023727;28;20359;-73
2023/10/26 07:32:43;;;;;;;32.25;14.00;;;;;;;;;;5030158;28;20398;-74
2023/10/26 07:35:08;;;;;;;26.05;12.77;;;;;;;;;;5028615;28;20033;-73
2023/10/26 07:37:33;;;;;;;29.60;12.97;;;;;;;;;;5028276;28;20049;-73
2023/10/26 07:39:58;;;;;;;26.38;12.18;;;;;;;;;;5020204;28;20322;-74
2023/10/26 07:42:23;;;;;;;33.03;13.32;;;;;;;;;;5021091;28;20029;-73
2023/10/26 07:44:51;;;;;;;28.08;13.25;;;;;;;;;;5023893;28;20018;-74
2023/10/26 07:47:17;;;;;;;29.27;13.50;;;;;;;;;;5026249;28;20021;-74
2023/10/26 07:49:42;;;;;;;33.60;12.97;;;;;;;;;;5030715;28;20029;-73
2023/10/26 07:52:07;;;;;;;25.52;11.40;;;;;;;;;;5030625;28;20347;-73
2023/10/26 07:54:32;;;;;;;28.03;12.77;;;;;;;;;;5017797;28;20076;-73
2023/10/26 07:56:57;;;;;;;32.33;13.48;;;;;;;;;;5024270;28;20320;-73
2023/10/26 07:59:23;;;;;;;27.53;11.63;;;;;;;;;;5017979;28;20026;-73
2023/10/26 08:01:48;;;;;;;32.53;13.60;;;;;;;;;;5018303;28;20257;-73
2023/10/26 08:04:13;;;;;;;30.03;12.97;;;;;;;;;;5027886;28;20041;-73
2023/10/26 08:06:38;;;;;;;28.53;11.73;;;;;;;;;;5022435;28;20360;-74
2023/10/26 08:09:05;;;;;;;25.70;12.85;;;;;;;;;;5019410;28;20326;-73
2023/10/26 08:11:30;;;;;;;26.90;12.65;;;;;;;;;;5023930;28;20021;-73
2023/10/26 08:13:55;;;;;;;32.45;12.57;;;;;;;;;;5025615;28;20033;-73
2023/10/26 08:16:20;;;;;;;24.50;11.70;;;;;;;;;;5022641;28;20552;-73
2023/10/26 08:18:45;;;;;;;27.97;12.47;;;;;;;;;;5030011;28;20049;-70
2023/10/26 08:21:11;;;;;;;22.80;11.50;;;;;;;;;;5025595;28;20244;-70
2023/10/26 08:23:36;;;;;;;29.53;11.27;;;;;;;;;;5027519;28;20275;-73
2023/10/26 08:26:08;;;;;;;27.02;11.90;;;;;;;;;;5020555;28;20269;-74
2023/10/26 08:28:33;;;;;;;27.58;12.30;;;;;;;;;;5016872;28;20072;-74
2023/10/26 08:31:00;;;;;;;26.95;12.25;;;;;;;;;;5025609;28;20060;-71
2023/10/26 08:33:26;;;;;;;28.23;11.68;;;;;;;;;;5032367;28;20581;-71
2023/10/26 08:35:51;;;;;;;24.10;12.30;;;;;;;;;;5024773;28;20105;-71
2023/10/26 08:38:16;;;;;;;27.85;13.07;;;;;;;;;;5017966;28;20022;-71
2023/10/26 08:40:51;;;;;;;24.27;11.88;;;;;;;;;;5016521;28;20025;-71
2023/10/26 08:43:17;;;;;;;26.60;12.93;;;;;;;;;;5026258;28;20021;-71
2023/10/26 08:45:44;;;;;;;27.35;13.32;;;;;;;;;;5025216;28;20024;-71
2023/10/26 08:48:11;;;;;;;35.90;14.43;;;;;;;;;;5022087;28;20385;-71
2023/10/26 08:50:37;;;;;;;30.33;13.77;;;;;;;;;;5022350;28;20050;-71
2023/10/26 08:53:02;;;;;;;26.90;13.65;;;;;;;;;;5027568;28;20446;-70
2023/10/26 08:55:27;;;;;;;27.33;12.82;;;;;;;;;;5026386;28;20101;-71
2023/10/26 08:57:54;;;;;;;31.57;13.60;;;;;;;;;;5021507;28;20025;-70
2023/10/26 09:00:20;;;;;;;26.80;12.60;;;;;;;;;;5027700;28;20625;-71
2023/10/26 09:02:45;;;;;;;27.17;12.93;;;;;;;;;;5028655;28;20006;-71
2023/10/26 09:05:11;;;;;;;31.42;13.63;;;;;;;;;;5021098;28;20017;-71
2023/10/26 09:07:36;;;;;;;29.67;14.13;;;;;;;;;;5023628;28;20020;-72
2023/10/26 09:10:02;;;;;;;27.60;13.75;;;;;;;;;;5030469;28;20092;-71
2023/10/26 09:12:27;;;;;;;29.98;13.40;;;;;;;;;;5015852;28;20018;-71
2023/10/26 09:14:59;;;;;;;28.10;13.07;;;;;;;;;;5025075;28;20036;-71
2023/10/26 09:17:25;;;;;;;23.77;12.05;;;;;;;;;;5028248;28;20277;-71
2023/10/26 09:19:50;;;;;;;31.85;13.55;;;;;;;;;;5028989;28;20018;-73
2023/10/26 09:22:15;;;;;;;28.33;13.88;;;;;;;;;;5026484;28;20420;-73
2023/10/26 09:24:40;;;;;;;32.80;15.57;;;;;;;;;;5026268;28;20025;-73
2023/10/26 09:27:05;;;;;;;30.23;13.55;;;;;;;;;;5031026;28;20334;-73
2023/10/26 09:29:37;;;;;;;29.53;14.43;;;;;;;;;;5022711;28;20109;-72
2023/10/26 09:32:03;;;;;;;27.45;12.18;;;;;;;;;;5027673;28;20268;-70
2023/10/26 09:34:28;;;;;;;31.83;12.50;;;;;;;;;;5026497;28;20044;-71
2023/10/26 09:36:57;;;;;;;28.73;13.43;;;;;;;;;;5030010;28;20508;-71
2023/10/26 09:39:22;;;;;;;32.13;13.85;;;;;;;;;;5022071;28;20645;-71
2023/10/26 09:41:49;;;;;;;28.50;12.75;;;;;;;;;;5023786;28;20026;-71
2023/10/26 09:44:14;;;;;;;28.00;12.60;;;;;;;;;;5028101;28;20027;-71
2023/10/26 09:46:40;;;;;;;29.57;12.63;;;;;;;;;;5025073;28;20029;-71
2023/10/26 09:49:05;;;;;;;27.27;9.82;;;;;;;;;;5028504;28;20293;-71
2023/10/26 09:51:30;;;;;;;25.75;13.50;;;;;;;;;;5024559;28;20386;-71
2023/10/26 09:53:57;;;;;;;37.58;14.85;;;;;;;;;;5031542;28;20021;-71
2023/10/26 09:56:24;;;;;;;28.25;13.98;;;;;;;;;;5021684;28;20654;-71
2023/10/26 09:58:51;;;;;;;38.95;15.57;;;;;;;;;;5057386;28;20032;-71
2023/10/26 10:01:33;;;;;;;42.15;14.60;;;;;;;;;;5030103;28;20067;-71
2023/10/26 10:03:59;;;;;;;37.38;15.45;;;;;;;;;;5023737;28;20021;-71
2023/10/26 10:06:42;;;;;;;28.85;14.55;;;;;;;;;;5024678;28;20340;-71
2023/10/26 10:09:10;;;;;;;27.50;13.98;;;;;;;;;;5030016;28;20038;-71
2023/10/26 10:11:35;;;;;;;30.38;15.27;;;;;;;;;;5025321;28;20017;-70
2023/10/26 10:14:01;;;;;;;30.57;14.87;;;;;;;;;;5029695;28;20507;-71
2023/10/26 10:16:35;;;;;;;32.92;15.82;;;;;;;;;;5028877;28;20279;-71
2023/10/26 10:19:15;;;;;;;29.02;14.88;;;;;;;;;;5029833;28;20485;-71
2023/10/26 10:21:40;;;;;;;33.35;15.07;;;;;;;;;;5014449;28;20017;-71
2023/10/26 10:24:05;;;;;;;34.00;15.50;;;;;;;;;;5015825;28;20081;-71
2023/10/26 10:26:50;;;;;;;33.28;14.98;;;;;;;;;;5013806;28;20281;-73
2023/10/26 10:29:20;;;;;;;25.63;13.27;;;;;;;;;;5020210;28;20052;-73
2023/10/26 10:31:45;;;;;;;26.38;13.30;;;;;;;;;;5020383;28;20029;-73
2023/10/26 10:34:11;;;;;;;25.52;13.63;;;;;;;;;;5022109;28;20520;-73
2023/10/26 10:36:55;;;;;;;27.23;13.75;;;;;;;;;;5013528;28;20132;-73
2023/10/26 10:39:24;;;;;;;26.58;14.68;;;;;;;;;;5027826;28;20021;-73
2023/10/26 10:41:50;;;;;;;26.20;12.63;;;;;;;;;;5029472;28;20159;-73
2023/10/26 10:44:16;;;;;;;26.75;12.65;;;;;;;;;;5015217;28;20096;-73
2023/10/26 10:46:46;;;;;;;26.02;12.10;;;;;;;;;;5013443;28;20054;-73
2023/10/26 10:49:11;;;;;;;25.95;12.07;;;;;;;;;;5015073;28;20044;-70
2023/10/26 10:51:36;;;;;;;22.90;11.15;;;;;;;;;;5017660;28;20063;-71
2023/10/26 10:54:03;;;;;;;26.17;12.63;;;;;;;;;;5027309;28;20076;-73
2023/10/26 10:56:34;;;;;;;23.80;12.18;;;;;;;;;;5022748;28;20642;-73
2023/10/26 10:58:59;;;;;;;25.17;10.90;;;;;;;;;;5021232;28;20020;-73
2023/10/26 11:01:27;;;;;;;18.03;9.13;;;;;;;;;;5028497;28;20021;-73
2023/10/26 11:04:02;;;;;;;19.13;10.48;;;;;;;;;;5028578;28;20338;-72
2023/10/26 11:06:27;;;;;;;19.55;9.77;;;;;;;;;;5021011;28;20116;-73
2023/10/26 11:08:52;;;;;;;19.17;10.00;;;;;;;;;;5018947;28;20101;-73
2023/10/26 11:11:26;;;;;;;19.30;9.90;;;;;;;;;;5025205;28;20294;-73
2023/10/26 11:14:04;;;;;;;18.10;10.30;;;;;;;;;;5028053;28;20772;-73
2023/10/26 11:16:29;;;;;;;16.92;9.48;;;;;;;;;;5021470;28;20025;-73
2023/10/26 11:18:54;;;;;;;16.90;9.27;;;;;;;;;;5021664;28;20080;-73
2023/10/26 11:21:20;;;;;;;12.10;7.63;;;;;;;;;;5019750;28;20031;-73
2023/10/26 11:23:49;;;;;;;9.88;5.68;;;;;;;;;;5028840;28;20280;-73
2023/10/26 11:26:14;;;;;;;12.77;5.68;;;;;;;;;;5021894;28;20022;-71
2023/10/26 11:28:39;;;;;;;10.80;6.10;;;;;;;;;;5017891;28;20083;-71
2023/10/26 11:31:04;;;;;;;16.07;7.90;;;;;;;;;;5018767;28;20406;-70
2023/10/26 11:33:30;;;;;;;14.00;7.43;;;;;;;;;;5012826;28;20367;-71
2023/10/26 11:35:56;;;;;;;11.00;5.90;;;;;;;;;;5019010;28;20327;-70
2023/10/26 11:38:21;;;;;;;11.35;6.10;;;;;;;;;;5013137;28;20025;-71
2023/10/26 11:40:46;;;;;;;8.52;5.30;;;;;;;;;;5020920;28;20041;-71
2023/10/26 11:43:11;;;;;;;18.20;8.20;;;;;;;;;;5016101;28;20017;-71
2023/10/26 11:45:47;;;;;;;11.87;6.37;;;;;;;;;;5021747;28;20018;-70
2023/10/26 11:48:24;;;;;;;9.02;5.13;;;;;;;;;;5019887;28;20610;-71
2023/10/26 11:50:49;;;;;;;10.20;5.90;;;;;;;;;;5015872;28;20022;-71
2023/10/26 11:53:14;;;;;;;8.30;5.37;;;;;;;;;;5017376;28;20021;-71
2023/10/26 11:55:39;;;;;;;9.40;5.97;;;;;;;;;;5022566;28;20802;-71
2023/10/26 11:58:05;;;;;;;13.87;6.23;;;;;;;;;;5023148;28;20353;-71
2023/10/26 12:00:30;;;;;;;8.07;4.60;;;;;;;;;;5015718;28;20279;-71
2023/10/26 12:02:56;;;;;;;10.98;6.15;;;;;;;;;;5016779;28;20261;-70
2023/10/26 12:05:22;;;;;;;12.63;6.53;;;;;;;;;;5016582;28;20079;-70
2023/10/26 12:07:48;;;;;;;15.80;7.80;;;;;;;;;;5015775;28;20647;-70
2023/10/26 12:10:15;;;;;;;16.23;7.65;;;;;;;;;;5016546;28;20104;-70
2023/10/26 12:12:40;;;;;;;12.80;7.03;;;;;;;;;;5015430;28;20056;-71
2023/10/26 12:15:06;;;;;;;13.63;7.43;;;;;;;;;;5017442;28;20050;-70
2023/10/26 12:17:31;;;;;;;14.95;6.68;;;;;;;;;;5015149;28;20068;-71
2023/10/26 12:19:56;;;;;;;16.02;7.60;;;;;;;;;;5015614;28;20014;-71
2023/10/26 12:22:22;;;;;;;13.50;6.68;;;;;;;;;;5015955;28;20053;-72
2023/10/26 12:24:47;;;;;;;14.43;7.13;;;;;;;;;;5018668;28;20508;-72
2023/10/26 12:27:16;;;;;;;12.45;6.03;;;;;;;;;;5018182;28;20013;-72
2023/10/26 12:29:41;;;;;;;14.88;4.93;;;;;;;;;;5014776;28;20022;-72
2023/10/26 12:32:06;;;;;;;9.40;4.60;;;;;;;;;;5016096;28;20101;-72
2023/10/26 12:34:33;;;;;;;9.80;5.53;;;;;;;;;;5014748;28;20628;-72
2023/10/26 12:36:58;;;;;;;13.23;6.22;;;;;;;;;;5015442;28;20268;-72
2023/10/26 12:39:23;;;;;;;6.10;2.93;;;;;;;;;;5019881;28;20030;-73
2023/10/26 12:41:48;;;;;;;9.63;5.05;;;;;;;;;;5014659;28;20884;-72
2023/10/26 12:44:15;;;;;;;8.60;5.10;;;;;;;;;;5015724;28;20449;-72
2023/10/26 12:46:41;;;;;;;11.52;6.18;;;;;;;;;;5014728;28;20298;-72
2023/10/26 12:49:06;;;;;;;10.97;4.37;;;;;;;;;;5016772;28;20693;-72
2023/10/26 12:51:31;;;;;;;7.83;4.93;;;;;;;;;;5014832;28;20285;-72
2023/10/26 12:53:56;;;;;;;10.57;5.57;;;;;;;;;;5014814;28;20777;-73
2023/10/26 12:56:21;;;;;;;16.48;5.88;;;;;;;;;;5014887;28;20280;-72
2023/10/26 12:58:47;;;;;;;10.00;5.80;;;;;;;;;;5014061;28;20219;-73
2023/10/26 13:01:12;;;;;;;12.80;6.03;;;;;;;;;;5018684;28;20034;-73
2023/10/26 13:03:37;;;;;;;17.07;6.03;;;;;;;;;;5014176;28;20326;-72
2023/10/26 13:06:02;;;;;;;9.63;5.63;;;;;;;;;;5014988;28;20271;-73
2023/10/26 13:08:27;;;;;;;13.73;5.47;;;;;;;;;;5013784;28;20292;-72
2023/10/26 13:10:53;;;;;;;12.40;5.88;;;;;;;;;;5013923;28;20109;-72
2023/10/26 13:13:18;;;;;;;11.20;6.25;;;;;;;;;;5015058;28;20056;-73
2023/10/26 13:15:43;;;;;;;9.20;5.20;;;;;;;;;;5017906;28;20544;-72
2023/10/26 13:18:08;;;;;;;11.30;5.80;;;;;;;;;;5023305;28;20272;-72
2023/10/26 13:20:33;;;;;;;9.93;5.90;;;;;;;;;;5020252;28;20256;-72
2023/10/26 13:22:59;;;;;;;12.70;6.57;;;;;;;;;;5030093;28;20338;-72
2023/10/26 13:25:25;;;;;;;7.70;4.05;;;;;;;;;;5027771;28;20323;-72
2023/10/26 13:27:51;;;;;;;12.63;4.43;;;;;;;;;;5013329;28;20014;-73
2023/10/26 13:30:16;;;;;;;8.55;4.57;;;;;;;;;;5014122;28;20096;-72
2023/10/26 13:32:41;;;;;;;9.38;5.32;;;;;;;;;;5015876;28;20030;-72
2023/10/26 13:35:07;;;;;;;9.32;4.80;;;;;;;;;;5030488;28;20021;-72
2023/10/26 13:37:32;;;;;;;7.60;4.15;;;;;;;;;;5030352;28;20026;-72
2023/10/26 13:39:57;;;;;;;7.50;4.33;;;;;;;;;;5016464;28;20111;-72
2023/10/26 13:42:23;;;;;;;9.90;4.40;;;;;;;;;;5013911;28;20265;-72
2023/10/26 13:44:48;;;;;;;9.55;4.95;;;;;;;;;;5013081;28;20260;-72
2023/10/26 13:47:13;;;;;;;10.90;5.27;;;;;;;;;;5013674;28;20099;-72
2023/10/26 13:49:38;;;;;;;10.97;5.87;;;;;;;;;;5022407;28;20268;-72
2023/10/26 13:52:04;;;;;;;10.52;5.75;;;;;;;;;;5029804;28;20263;-72
2023/10/26 13:54:29;;;;;;;8.65;5.20;;;;;;;;;;5012769;28;20096;-72
2023/10/26 13:56:55;;;;;;;10.63;5.47;;;;;;;;;;5012550;28;20097;-72
2023/10/26 13:59:20;;;;;;;8.25;5.25;;;;;;;;;;5013314;28;20721;-72
2023/10/26 14:01:45;;;;;;;8.40;4.95;;;;;;;;;;5012687;28;20014;-72
2023/10/26 14:04:10;;;;;;;11.20;5.20;;;;;;;;;;5020711;28;20067;-72
2023/10/26 14:06:36;;;;;;;11.27;6.05;;;;;;;;;;5029394;28;20092;-72
2023/10/26 14:09:01;;;;;;;12.73;6.07;;;;;;;;;;5021782;28;20042;-72
2023/10/26 14:11:27;;;;;;;8.65;4.60;;;;;;;;;;5027321;28;20288;-72
2023/10/26 14:13:52;;;;;;;10.10;5.45;;;;;;;;;;5042094;28;20013;-72